createdAt,value
2019-05-03T00:00:31.644Z,9.72
2019-05-03T00:01:29.919Z,9.8
2019-05-03T00:02:29.927Z,9.8
2019-05-03T00:03:31.904Z,9.8
2019-05-03T00:04:31.577Z,9.74
2019-05-03T00:05:29.870Z,9.8
2019-05-03T00:06:29.863Z,9.8
2019-05-03T00:07:31.434Z,9.77
2019-05-03T00:08:29.844Z,9.76
2019-05-03T00:09:29.586Z,9.76
2019-05-03T00:10:31.650Z,9.74
2019-05-03T00:11:29.832Z,9.77
2019-05-03T00:12:29.813Z,9.76
2019-05-03T00:13:29.810Z,9.67
2019-05-03T00:14:29.802Z,9.7
2019-05-03T00:15:29.993Z,9.73
2019-05-03T00:16:29.798Z,9.76
2019-05-03T00:17:29.786Z,9.77
2019-05-03T00:18:29.775Z,9.74
2019-05-03T00:19:29.766Z,9.74
2019-05-03T00:20:29.763Z,9.84
2019-05-03T00:21:29.757Z,9.73
2019-05-03T00:22:29.746Z,9.77
2019-05-03T00:23:29.745Z,9.7
2019-05-03T00:24:31.850Z,9.72
2019-05-03T00:25:29.722Z,9.77
2019-05-03T00:26:31.700Z,9.8
2019-05-03T00:27:29.709Z,9.76
2019-05-03T00:28:29.696Z,9.8
2019-05-03T00:29:29.692Z,9.8
2019-05-03T00:30:31.824Z,9.7
2019-05-03T00:31:31.772Z,9.66
2019-05-03T00:32:29.671Z,9.7
2019-05-03T00:33:31.449Z,9.7
2019-05-03T00:34:29.656Z,9.62
2019-05-03T00:35:29.648Z,9.67
2019-05-03T00:36:29.640Z,9.67
2019-05-03T00:37:29.632Z,9.66
2019-05-03T00:38:29.634Z,9.74
2019-05-03T00:39:29.615Z,9.72
2019-05-03T00:40:29.608Z,9.69
2019-05-03T00:41:29.603Z,9.66
2019-05-03T00:42:31.660Z,9.72
2019-05-03T00:43:31.626Z,9.66
2019-05-03T00:44:31.589Z,9.7
2019-05-03T00:45:31.486Z,9.77
2019-05-03T00:46:29.719Z,9.8
2019-05-03T00:47:29.556Z,9.64
2019-05-03T00:48:29.550Z,9.8
2019-05-03T00:49:29.546Z,9.66
2019-05-03T00:50:29.536Z,9.67
2019-05-03T00:51:29.527Z,9.76
2019-05-03T00:52:29.517Z,9.72
2019-05-03T00:53:29.256Z,9.8
2019-05-03T00:54:31.568Z,9.76
2019-05-03T00:55:29.502Z,9.76
2019-05-03T00:56:29.486Z,9.81
2019-05-03T00:57:29.231Z,9.74
2019-05-03T00:58:29.469Z,9.74
2019-05-03T00:59:29.462Z,9.84
2019-05-03T01:00:29.455Z,9.74
2019-05-03T01:01:29.207Z,9.72
2019-05-03T01:02:31.793Z,9.74
2019-05-03T01:03:29.436Z,9.74
2019-05-03T01:04:29.499Z,9.74
2019-05-03T01:05:29.417Z,9.8
2019-05-03T01:06:29.420Z,9.8
2019-05-03T01:07:31.560Z,9.8
2019-05-03T01:08:29.403Z,9.67
2019-05-03T01:09:29.395Z,9.8
2019-05-03T01:10:29.129Z,9.73
2019-05-03T01:11:29.378Z,9.63
2019-05-03T01:12:29.368Z,9.66
2019-05-03T01:13:29.376Z,9.64
2019-05-03T01:14:29.111Z,9.56
2019-05-03T01:15:29.354Z,9.54
2019-05-03T01:16:29.346Z,9.58
2019-05-03T01:17:29.332Z,9.54
2019-05-03T01:18:29.328Z,9.62
2019-05-03T01:19:29.318Z,9.59
2019-05-03T01:20:29.303Z,9.59
2019-05-03T01:21:29.299Z,9.56
2019-05-03T01:22:29.291Z,9.54
2019-05-03T01:23:29.286Z,9.58
2019-05-03T01:24:29.280Z,9.54
2019-05-03T01:25:38.058Z,9.55
2019-05-03T01:26:29.262Z,9.59
2019-05-03T01:27:29.254Z,9.52
2019-05-03T01:28:29.250Z,9.56
2019-05-03T01:29:29.245Z,9.55
2019-05-03T01:30:29.234Z,9.59
2019-05-03T01:31:29.224Z,9.59
2019-05-03T01:32:29.217Z,9.51
2019-05-03T01:33:28.979Z,9.56
2019-05-03T01:34:29.206Z,9.58
2019-05-03T01:35:29.198Z,9.56
2019-05-03T01:36:29.233Z,9.59
2019-05-03T01:37:29.184Z,9.62
2019-05-03T01:38:28.924Z,9.55
2019-05-03T01:39:29.161Z,9.52
2019-05-03T01:40:29.156Z,9.56
2019-05-03T01:41:29.153Z,9.58
2019-05-03T01:42:29.137Z,9.54
2019-05-03T01:43:28.879Z,9.58
2019-05-03T01:44:29.125Z,9.63
2019-05-03T01:45:29.118Z,9.63
2019-05-03T01:46:29.111Z,9.66
2019-05-03T01:47:28.853Z,9.62
2019-05-03T01:48:28.841Z,9.67
2019-05-03T01:49:28.845Z,9.64
2019-05-03T01:50:29.084Z,9.76
2019-05-03T01:51:29.073Z,9.74
2019-05-03T01:52:29.067Z,9.69
2019-05-03T01:53:28.806Z,9.72
2019-05-03T01:54:29.057Z,9.77
2019-05-03T01:55:41.747Z,9.77
2019-05-03T01:56:28.782Z,9.74
2019-05-03T01:57:28.781Z,9.74
2019-05-03T01:58:28.772Z,9.76
2019-05-03T01:59:28.773Z,9.77
2019-05-03T02:00:29.003Z,9.8
2019-05-03T02:01:28.748Z,9.81
2019-05-03T02:02:28.993Z,9.7
2019-05-03T02:03:28.979Z,9.74
2019-05-03T02:04:28.990Z,9.74
2019-05-03T02:05:28.965Z,9.76
2019-05-03T02:06:28.956Z,9.69
2019-05-03T02:07:28.960Z,9.66
2019-05-03T02:08:28.689Z,9.69
2019-05-03T02:09:28.939Z,9.63
2019-05-03T02:10:28.924Z,9.69
2019-05-03T02:11:28.922Z,9.59
2019-05-03T02:12:28.914Z,9.64
2019-05-03T02:13:28.904Z,9.66
2019-05-03T02:14:28.902Z,9.64
2019-05-03T02:15:28.891Z,9.56
2019-05-03T02:16:28.635Z,9.64
2019-05-03T02:17:28.873Z,9.63
2019-05-03T02:18:28.868Z,9.63
2019-05-03T02:19:28.862Z,9.62
2019-05-03T02:20:28.856Z,9.59
2019-05-03T02:21:28.593Z,9.55
2019-05-03T02:22:28.835Z,9.58
2019-05-03T02:23:28.580Z,9.62
2019-05-03T02:24:28.824Z,9.56
2019-05-03T02:25:28.812Z,9.54
2019-05-03T02:26:28.819Z,9.51
2019-05-03T02:27:28.816Z,9.49
2019-05-03T02:28:28.820Z,9.47
2019-05-03T02:29:28.790Z,9.44
2019-05-03T02:30:32.897Z,9.47
2019-05-03T02:31:28.784Z,9.4
2019-05-03T02:32:28.784Z,9.44
2019-05-03T02:33:28.525Z,9.34
2019-05-03T02:34:28.922Z,9.34
2019-05-03T02:35:28.952Z,9.29
2019-05-03T02:36:28.751Z,9.29
2019-05-03T02:37:28.727Z,9.29
2019-05-03T02:38:28.717Z,9.26
2019-05-03T02:39:28.714Z,9.3
2019-05-03T02:40:29.613Z,9.27
2019-05-03T02:41:28.740Z,9.3
2019-05-03T02:42:31.374Z,9.29
2019-05-03T02:43:31.011Z,9.27
2019-05-03T02:44:31.595Z,9.29
2019-05-03T02:45:30.533Z,9.26
2019-05-03T02:46:30.280Z,9.29
2019-05-03T02:47:31.372Z,9.18
2019-05-03T02:48:30.457Z,9.19
2019-05-03T02:49:30.741Z,9.16
2019-05-03T02:50:30.905Z,9.18
2019-05-03T02:51:30.946Z,9.19
2019-05-03T02:52:30.383Z,9.22
2019-05-03T02:53:30.502Z,9.27
2019-05-03T02:54:31.612Z,9.29
2019-05-03T02:55:31.023Z,9.27
2019-05-03T02:56:31.029Z,9.33
2019-05-03T02:57:30.522Z,9.31
2019-05-03T02:58:30.181Z,9.27
2019-05-03T02:59:31.294Z,9.26
2019-05-03T03:00:30.378Z,9.16
2019-05-03T03:01:31.294Z,9.13
2019-05-03T03:02:31.205Z,9.13
2019-05-03T03:03:30.435Z,9.15
2019-05-03T03:04:30.897Z,9.22
2019-05-03T03:05:30.095Z,9.22
2019-05-03T03:06:31.691Z,9.11
2019-05-03T03:07:30.803Z,9.08
2019-05-03T03:08:32.878Z,9.15
2019-05-03T03:09:30.849Z,9.13
2019-05-03T03:10:31.187Z,9.16
2019-05-03T03:11:30.996Z,9.15
2019-05-03T03:12:30.106Z,9.19
2019-05-03T03:13:30.278Z,9.21
2019-05-03T03:14:30.664Z,9.3
2019-05-03T03:15:30.512Z,9.21
2019-05-03T03:16:30.061Z,9.24
2019-05-03T03:17:30.405Z,9.24
2019-05-03T03:18:30.426Z,9.18
2019-05-03T03:19:31.007Z,9.26
2019-05-03T03:20:30.273Z,9.29
2019-05-03T03:21:30.918Z,9.33
2019-05-03T03:22:30.777Z,9.29
2019-05-03T03:23:31.097Z,9.22
2019-05-03T03:24:30.767Z,9.26
2019-05-03T03:25:30.699Z,9.21
2019-05-03T03:26:47.187Z,9.18
2019-05-03T03:27:30.637Z,9.22
2019-05-03T03:28:29.953Z,9.22
2019-05-03T03:29:30.169Z,9.22
2019-05-03T03:30:37.448Z,9.11
2019-05-03T03:31:37.431Z,9.24
2019-05-03T03:32:38.359Z,9.24
2019-05-03T03:33:32.826Z,9.27
2019-05-03T03:34:37.948Z,9.16
2019-05-03T03:35:37.984Z,9.19
2019-05-03T03:37:09.942Z,9.18
2019-05-03T03:37:30.729Z,9.15
2019-05-03T03:38:31.020Z,9.18
2019-05-03T03:39:30.979Z,9.19
2019-05-03T03:40:30.327Z,9.15
2019-05-03T03:41:29.576Z,9.21
2019-05-03T03:42:30.019Z,9.19
2019-05-03T03:43:30.753Z,9.16
2019-05-03T03:44:30.570Z,9.12
2019-05-03T03:45:30.293Z,9.12
2019-05-03T03:46:32.137Z,9.12
2019-05-03T03:47:29.883Z,9.09
2019-05-03T03:48:31.274Z,9.22
2019-05-03T03:49:30.953Z,9.15
2019-05-03T03:50:30.802Z,9.03
2019-05-03T03:51:31.160Z,9.02
2019-05-03T03:52:30.551Z,9
2019-05-03T03:53:31.094Z,8.95
2019-05-03T03:54:30.768Z,8.99
2019-05-03T03:55:31.149Z,9
2019-05-03T03:56:30.496Z,8.96
2019-05-03T03:57:30.142Z,9.11
2019-05-03T03:58:31.764Z,8.99
2019-05-03T03:59:31.150Z,8.97
2019-05-03T04:00:30.604Z,9.12
2019-05-03T04:01:31.388Z,9.19
2019-05-03T04:02:31.163Z,9.09
2019-05-03T04:03:30.991Z,9.16
2019-05-03T04:04:30.756Z,9.21
2019-05-03T04:05:30.303Z,9.21
2019-05-03T04:06:29.418Z,9.22
2019-05-03T04:07:30.881Z,9.16
2019-05-03T04:08:30.078Z,9.19
2019-05-03T04:09:30.440Z,9.19
2019-05-03T04:10:30.815Z,9.18
2019-05-03T04:11:30.712Z,9.15
2019-05-03T04:12:31.222Z,9.11
2019-05-03T04:13:30.420Z,9.15
2019-05-03T04:14:30.304Z,9.13
2019-05-03T04:15:30.823Z,9.15
2019-05-03T04:16:30.635Z,9
2019-05-03T04:17:30.801Z,9.13
2019-05-03T04:18:30.352Z,9.03
2019-05-03T04:19:30.003Z,9
2019-05-03T04:20:30.587Z,8.99
2019-05-03T04:21:30.469Z,9.11
2019-05-03T04:22:30.269Z,9.08
2019-05-03T04:23:28.968Z,9
2019-05-03T04:24:30.630Z,9.02
2019-05-03T04:25:30.950Z,9.08
2019-05-03T04:26:35.753Z,9.03
2019-05-03T04:27:31.966Z,8.96
2019-05-03T04:28:30.434Z,8.92
2019-05-03T04:29:30.237Z,9
2019-05-03T04:30:30.401Z,8.93
2019-05-03T04:31:30.849Z,8.96
2019-05-03T04:32:35.851Z,8.93
2019-05-03T04:33:29.388Z,8.92
2019-05-03T04:34:28.846Z,8.97
2019-05-03T04:35:29.233Z,8.96
2019-05-03T04:36:28.731Z,8.92
2019-05-03T04:37:29.135Z,9.02
2019-05-03T04:38:31.513Z,8.92
2019-05-03T04:39:30.491Z,8.9
2019-05-03T04:40:30.667Z,8.86
2019-05-03T04:41:29.516Z,8.9
2019-05-03T04:42:30.248Z,8.89
2019-05-03T04:43:31.141Z,8.87
2019-05-03T04:44:28.551Z,8.92
2019-05-03T04:45:30.240Z,8.87
2019-05-03T04:46:30.581Z,8.84
2019-05-03T04:47:29.054Z,8.79
2019-05-03T04:48:30.109Z,8.68
2019-05-03T04:49:30.844Z,8.74
2019-05-03T04:50:30.225Z,8.66
2019-05-03T04:51:30.577Z,8.74
2019-05-03T04:52:30.593Z,8.68
2019-05-03T04:53:28.503Z,8.68
2019-05-03T04:54:30.148Z,8.69
2019-05-03T04:55:29.205Z,8.71
2019-05-03T04:56:30.828Z,8.69
2019-05-03T04:57:50.495Z,8.78
2019-05-03T04:58:30.600Z,8.75
2019-05-03T04:59:30.171Z,8.72
2019-05-03T05:00:30.669Z,8.61
2019-05-03T05:01:28.644Z,8.72
2019-05-03T05:02:28.919Z,8.68
2019-05-03T05:03:29.026Z,8.71
2019-05-03T05:04:30.208Z,8.72
2019-05-03T05:05:30.840Z,8.78
2019-05-03T05:06:28.319Z,8.75
2019-05-03T05:07:28.653Z,8.69
2019-05-03T05:08:30.014Z,8.75
2019-05-03T05:09:28.408Z,8.77
2019-05-03T05:10:30.764Z,8.78
2019-05-03T05:11:28.812Z,8.69
2019-05-03T05:12:30.126Z,8.75
2019-05-03T05:13:29.837Z,8.78
2019-05-03T05:14:28.351Z,8.78
2019-05-03T05:15:28.934Z,8.87
2019-05-03T05:16:29.911Z,8.9
2019-05-03T05:17:28.523Z,8.89
2019-05-03T05:18:28.822Z,8.93
2019-05-03T05:19:27.900Z,8.89
2019-05-03T05:20:29.539Z,8.9
2019-05-03T05:21:27.791Z,8.9
2019-05-03T05:22:29.466Z,8.86
2019-05-03T05:23:27.887Z,8.9
2019-05-03T05:24:28.036Z,8.92
2019-05-03T05:25:27.591Z,8.89
2019-05-03T05:26:29.602Z,8.9
2019-05-03T05:27:27.817Z,8.95
2019-05-03T05:28:27.506Z,8.87
2019-05-03T05:29:27.822Z,8.89
2019-05-03T05:30:27.723Z,9.02
2019-05-03T05:31:27.971Z,8.9
2019-05-03T05:32:29.486Z,8.9
2019-05-03T05:33:27.772Z,8.92
2019-05-03T05:34:29.089Z,8.96
2019-05-03T05:35:29.539Z,9.02
2019-05-03T05:36:29.207Z,9
2019-05-03T05:37:27.543Z,8.82
2019-05-03T05:38:28.099Z,8.92
2019-05-03T05:39:28.983Z,9
2019-05-03T05:40:29.280Z,8.9
2019-05-03T05:41:29.337Z,9.02
2019-05-03T05:42:27.594Z,8.93
2019-05-03T05:43:28.058Z,8.89
2019-05-03T05:44:29.554Z,8.82
2019-05-03T05:45:29.358Z,8.92
2019-05-03T05:46:27.405Z,8.92
2019-05-03T05:47:27.887Z,8.84
2019-05-03T05:48:29.386Z,8.87
2019-05-03T05:49:28.425Z,8.89
2019-05-03T05:50:27.881Z,8.92
2019-05-03T05:51:27.355Z,8.89
2019-05-03T05:52:29.311Z,8.84
2019-05-03T05:53:27.858Z,8.89
2019-05-03T05:54:27.217Z,8.77
2019-05-03T05:55:27.743Z,8.78
2019-05-03T05:56:27.549Z,8.81
2019-05-03T05:57:28.113Z,8.72
2019-05-03T05:58:30.372Z,8.74
2019-05-03T05:59:29.567Z,8.68
2019-05-03T06:00:28.212Z,8.72
2019-05-03T06:01:27.523Z,8.69
2019-05-03T06:02:27.823Z,8.69
2019-05-03T06:03:27.744Z,8.75
2019-05-03T06:04:28.916Z,8.71
2019-05-03T06:05:27.792Z,8.66
2019-05-03T06:06:29.163Z,8.63
2019-05-03T06:07:27.363Z,8.63
2019-05-03T06:08:27.581Z,8.69
2019-05-03T06:09:28.113Z,8.66
2019-05-03T06:10:27.367Z,8.68
2019-05-03T06:11:28.296Z,8.6
2019-05-03T06:12:27.520Z,8.71
2019-05-03T06:13:28.851Z,8.69
2019-05-03T06:14:29.295Z,8.72
2019-05-03T06:15:31.378Z,8.64
2019-05-03T06:16:29.344Z,8.69
2019-05-03T06:17:27.060Z,8.66
2019-05-03T06:18:27.556Z,8.66
2019-05-03T06:19:27.731Z,8.69
2019-05-03T06:20:27.077Z,8.75
2019-05-03T06:21:27.537Z,8.78
2019-05-03T06:22:28.145Z,8.75
2019-05-03T06:23:27.266Z,8.77
2019-05-03T06:24:27.432Z,8.87
2019-05-03T06:25:29.077Z,8.79
2019-05-03T06:26:27.767Z,8.93
2019-05-03T06:27:29.216Z,8.92
2019-05-03T06:28:27.677Z,9.02
2019-05-03T06:29:27.294Z,8.99
2019-05-03T06:30:27.349Z,8.96
2019-05-03T06:31:27.752Z,8.96
2019-05-03T06:32:27.853Z,8.79
2019-05-03T06:33:26.994Z,8.89
2019-05-03T06:34:27.639Z,8.93
2019-05-03T06:35:27.305Z,8.86
2019-05-03T06:36:26.843Z,8.89
2019-05-03T06:37:27.591Z,8.86
2019-05-03T06:38:26.939Z,8.95
2019-05-03T06:39:27.455Z,8.82
2019-05-03T06:40:28.408Z,8.93
2019-05-03T06:41:27.522Z,8.97
2019-05-03T06:42:27.793Z,8.9
2019-05-03T06:43:27.031Z,8.92
2019-05-03T06:44:31.928Z,9.02
2019-05-03T06:45:27.597Z,9.08
2019-05-03T06:46:35.538Z,9.02
2019-05-03T06:47:28.671Z,9.11
2019-05-03T06:48:32.772Z,9.11
2019-05-03T06:49:27.962Z,9.19
2019-05-03T06:50:32.570Z,9.19
2019-05-03T06:51:27.343Z,9.18
2019-05-03T06:52:32.451Z,9.16
2019-05-03T06:53:27.893Z,9.18
2019-05-03T06:54:34.236Z,9.16
2019-05-03T06:55:27.266Z,9.11
2019-05-03T06:56:32.563Z,9.19
2019-05-03T06:57:27.804Z,9.13
2019-05-03T06:58:38.980Z,9.21
2019-05-03T06:59:27.408Z,9.22
2019-05-03T07:00:27.262Z,9.3
2019-05-03T07:01:27.790Z,9.13
2019-05-03T07:02:28.590Z,9.21
2019-05-03T07:03:27.643Z,9.16
2019-05-03T07:04:27.047Z,9.27
2019-05-03T07:05:27.576Z,9.3
2019-05-03T07:06:44.834Z,9.36
2019-05-03T07:07:30.350Z,9.37
2019-05-03T07:08:27.807Z,9.37
2019-05-03T07:09:27.468Z,9.33
2019-05-03T07:10:27.386Z,9.42
2019-05-03T07:11:27.194Z,9.51
2019-05-03T07:12:27.490Z,9.48
2019-05-03T07:13:27.930Z,9.4
2019-05-03T07:14:27.218Z,9.56
2019-05-03T07:15:27.649Z,9.62
2019-05-03T07:16:27.815Z,9.52
2019-05-03T07:17:27.298Z,9.58
2019-05-03T07:18:27.190Z,9.56
2019-05-03T07:19:27.478Z,9.69
2019-05-03T07:20:28.038Z,9.69
2019-05-03T07:21:27.206Z,9.72
2019-05-03T07:22:26.933Z,9.64
2019-05-03T07:23:26.995Z,9.59
2019-05-03T07:24:27.371Z,9.62
2019-05-03T07:25:28.110Z,9.58
2019-05-03T07:26:27.841Z,9.56
2019-05-03T07:27:27.287Z,9.56
2019-05-03T07:28:27.298Z,9.63
2019-05-03T07:29:27.944Z,9.54
2019-05-03T07:30:27.226Z,9.54
2019-05-03T07:31:27.980Z,9.55
2019-05-03T07:32:27.175Z,9.63
2019-05-03T07:33:27.924Z,9.55
2019-05-03T07:34:27.269Z,9.56
2019-05-03T07:35:27.643Z,9.59
2019-05-03T07:36:30.566Z,9.66
2019-05-03T07:37:27.071Z,9.66
2019-05-03T07:38:27.325Z,9.7
2019-05-03T07:39:27.028Z,9.69
2019-05-03T07:40:27.721Z,9.69
2019-05-03T07:41:31.273Z,9.69
2019-05-03T07:42:27.852Z,9.62
2019-05-03T07:43:27.015Z,9.66
2019-05-03T07:44:27.975Z,9.74
2019-05-03T07:45:28.040Z,9.67
2019-05-03T07:46:27.225Z,9.62
2019-05-03T07:47:27.156Z,9.62
2019-05-03T07:48:28.025Z,9.66
2019-05-03T07:49:27.461Z,9.69
2019-05-03T07:50:28.386Z,9.69
2019-05-03T07:51:27.428Z,9.67
2019-05-03T07:52:28.234Z,9.7
2019-05-03T07:53:27.657Z,9.77
2019-05-03T07:54:27.328Z,9.76
2019-05-03T07:55:27.408Z,9.73
2019-05-03T07:56:27.931Z,9.72
2019-05-03T07:57:27.960Z,9.66
2019-05-03T07:58:27.759Z,9.76
2019-05-03T07:59:27.517Z,9.66
2019-05-03T08:00:27.876Z,9.7
2019-05-03T08:01:27.645Z,9.73
2019-05-03T08:02:30.154Z,9.76
2019-05-03T08:03:26.843Z,9.77
2019-05-03T08:04:28.016Z,9.85
2019-05-03T08:05:27.137Z,9.87
2019-05-03T08:06:27.227Z,9.9
2019-05-03T08:07:28.374Z,9.94
2019-05-03T08:08:27.536Z,9.94
2019-05-03T08:09:27.088Z,9.97
2019-05-03T08:10:28.052Z,9.9
2019-05-03T08:11:27.363Z,9.9
2019-05-03T08:12:27.190Z,9.99
2019-05-03T08:13:27.763Z,10.02
2019-05-03T08:14:27.713Z,10.02
2019-05-03T08:15:27.006Z,9.95
2019-05-03T08:16:27.613Z,9.87
2019-05-03T08:17:28.021Z,9.87
2019-05-03T08:18:28.189Z,9.72
2019-05-03T08:19:29.618Z,9.81
2019-05-03T08:20:27.321Z,9.85
2019-05-03T08:21:27.722Z,9.91
2019-05-03T08:22:28.063Z,9.95
2019-05-03T08:23:35.000Z,9.85
2019-05-03T08:24:27.830Z,9.92
2019-05-03T08:25:27.442Z,10.03
2019-05-03T08:26:28.029Z,9.94
2019-05-03T08:27:27.602Z,9.95
2019-05-03T08:28:27.073Z,9.92
2019-05-03T08:29:27.355Z,9.88
2019-05-03T08:30:27.509Z,9.9
2019-05-03T08:31:29.364Z,9.91
2019-05-03T08:32:27.021Z,9.85
2019-05-03T08:33:27.426Z,9.85
2019-05-03T08:34:28.154Z,9.87
2019-05-03T08:35:26.834Z,9.91
2019-05-03T08:36:27.247Z,9.9
2019-05-03T08:37:28.029Z,9.88
2019-05-03T08:38:25.888Z,9.87
2019-05-03T08:39:27.729Z,9.85
2019-05-03T08:40:27.047Z,9.76
2019-05-03T08:41:27.163Z,9.76
2019-05-03T08:42:27.857Z,9.85
2019-05-03T08:43:27.911Z,9.87
2019-05-03T08:44:27.498Z,9.92
2019-05-03T08:45:27.949Z,9.87
2019-05-03T08:46:27.829Z,9.9
2019-05-03T08:47:27.261Z,10.13
2019-05-03T08:48:27.501Z,10.1
2019-05-03T08:49:27.921Z,10.06
2019-05-03T08:50:28.137Z,10.1
2019-05-03T08:51:27.496Z,9.99
2019-05-03T08:52:27.297Z,9.92
2019-05-03T08:53:28.156Z,10
2019-05-03T08:54:27.972Z,9.97
2019-05-03T08:55:27.468Z,10
2019-05-03T08:56:27.070Z,10.06
2019-05-03T08:57:27.902Z,10.06
2019-05-03T08:58:28.009Z,10.12
2019-05-03T08:59:38.256Z,10.13
2019-05-03T09:00:27.388Z,10.12
2019-05-03T09:01:27.654Z,10.24
2019-05-03T09:02:28.145Z,10.18
2019-05-03T09:03:27.422Z,10.18
2019-05-03T09:05:20.441Z,10.2
2019-05-03T09:05:32.663Z,10.18
2019-05-03T09:06:32.647Z,10.17
2019-05-03T09:07:32.644Z,10.17
2019-05-03T09:08:34.728Z,10.1
2019-05-03T09:09:34.644Z,10.05
2019-05-03T09:10:32.620Z,10.07
2019-05-03T09:11:39.403Z,10.03
2019-05-03T09:12:34.273Z,10.17
2019-05-03T09:13:34.271Z,10.12
2019-05-03T09:14:50.603Z,10.21
2019-05-03T09:15:32.573Z,10.28
2019-05-03T09:16:32.587Z,10.25
2019-05-03T09:17:32.562Z,10.27
2019-05-03T09:18:32.558Z,10.23
2019-05-03T09:19:34.544Z,10.06
2019-05-03T09:20:35.543Z,10.09
2019-05-03T09:21:34.601Z,10
2019-05-03T09:22:34.682Z,9.9
2019-05-03T09:23:32.535Z,9.85
2019-05-03T09:24:32.262Z,9.85
2019-05-03T09:25:32.507Z,9.74
2019-05-03T09:26:34.796Z,9.76
2019-05-03T09:27:34.323Z,9.66
2019-05-03T09:28:34.833Z,9.64
2019-05-03T09:29:48.255Z,9.63
2019-05-03T09:30:32.455Z,9.67
2019-05-03T09:31:32.446Z,9.67
2019-05-03T09:32:32.440Z,9.76
2019-05-03T09:33:32.449Z,9.8
2019-05-03T09:34:32.416Z,9.74
2019-05-03T09:35:38.627Z,9.77
2019-05-03T09:36:34.293Z,9.76
2019-05-03T09:37:32.394Z,9.74
2019-05-03T09:38:32.397Z,9.82
2019-05-03T09:39:32.382Z,9.85
2019-05-03T09:40:32.128Z,9.84
2019-05-03T09:41:34.529Z,9.88
2019-05-03T09:42:32.110Z,9.91
2019-05-03T09:43:32.352Z,9.91
2019-05-03T09:44:32.343Z,9.92
2019-05-03T09:45:32.346Z,10.02
2019-05-03T09:46:32.336Z,10.06
2019-05-03T09:47:32.324Z,10.13
2019-05-03T09:48:34.466Z,10.27
2019-05-03T09:49:32.310Z,10.3
2019-05-03T09:50:32.324Z,10.2
2019-05-03T09:51:32.291Z,10.2
2019-05-03T09:52:32.362Z,10.2
2019-05-03T09:53:32.267Z,10.23
2019-05-03T09:54:34.539Z,10.13
2019-05-03T09:55:32.259Z,10.12
2019-05-03T09:56:32.248Z,10.06
2019-05-03T09:57:32.237Z,9.97
2019-05-03T09:58:34.720Z,9.99
2019-05-03T09:59:32.228Z,10.02
2019-05-03T10:00:32.212Z,9.88
2019-05-03T10:01:32.208Z,9.85
2019-05-03T10:02:32.203Z,9.85
2019-05-03T10:03:32.203Z,9.97
2019-05-03T10:04:32.331Z,10.09
2019-05-03T10:05:32.199Z,10.06
2019-05-03T10:06:32.169Z,10.12
2019-05-03T10:07:32.156Z,10.15
2019-05-03T10:08:32.155Z,10.18
2019-05-03T10:09:32.140Z,10.17
2019-05-03T10:10:32.166Z,10.12
2019-05-03T10:11:32.132Z,10.13
2019-05-03T10:12:32.114Z,10.06
2019-05-03T10:13:32.265Z,9.99
2019-05-03T10:14:32.103Z,10.02
2019-05-03T10:15:32.097Z,10.07
2019-05-03T10:16:32.089Z,10.06
2019-05-03T10:17:32.079Z,10.09
2019-05-03T10:18:31.815Z,10.1
2019-05-03T10:19:45.143Z,10.13
2019-05-03T10:20:32.055Z,10.17
2019-05-03T10:21:32.063Z,10.21
2019-05-03T10:22:32.102Z,10.23
2019-05-03T10:23:32.042Z,10.25
2019-05-03T10:24:32.039Z,10.33
2019-05-03T10:25:31.781Z,10.28
2019-05-03T10:26:31.784Z,10.28
2019-05-03T10:27:31.999Z,10.31
2019-05-03T10:28:31.991Z,10.3
2019-05-03T10:29:31.982Z,10.3
2019-05-03T10:30:31.984Z,10.36
2019-05-03T10:31:31.973Z,10.34
2019-05-03T10:32:31.956Z,10.36
2019-05-03T10:33:31.957Z,10.38
2019-05-03T10:34:31.951Z,10.28
2019-05-03T10:35:31.933Z,10.39
2019-05-03T10:36:31.929Z,10.25
2019-05-03T10:37:31.921Z,10.31
2019-05-03T10:38:31.919Z,10.27
2019-05-03T10:39:31.908Z,10.39
2019-05-03T10:40:31.904Z,10.34
2019-05-03T10:41:31.910Z,10.39
2019-05-03T10:42:31.879Z,10.39
2019-05-03T10:43:31.873Z,10.39
2019-05-03T10:44:31.862Z,10.36
2019-05-03T10:45:32.974Z,10.43
2019-05-03T10:46:31.862Z,10.43
2019-05-03T10:47:31.845Z,10.39
2019-05-03T10:48:31.832Z,10.55
2019-05-03T10:49:31.826Z,10.46
2019-05-03T10:50:31.817Z,10.53
2019-05-03T10:51:31.842Z,10.58
2019-05-03T10:52:31.805Z,10.57
2019-05-03T10:53:31.794Z,10.48
2019-05-03T10:54:31.782Z,10.64
2019-05-03T10:55:31.789Z,10.82
2019-05-03T10:56:31.788Z,10.92
2019-05-03T10:57:31.772Z,10.87
2019-05-03T10:58:31.761Z,11.02
2019-05-03T10:59:31.745Z,11.13
2019-05-03T11:00:56.658Z,11.16
2019-05-03T11:01:31.731Z,11.1
2019-05-03T11:02:31.725Z,11.18
2019-05-03T11:03:31.719Z,11.25
2019-05-03T11:04:31.486Z,11.34
2019-05-03T11:05:31.703Z,11.35
2019-05-03T11:06:31.741Z,11.41
2019-05-03T11:07:31.696Z,11.48
2019-05-03T11:08:32.616Z,11.31
2019-05-03T11:09:47.208Z,11.34
2019-05-03T11:10:32.576Z,11.3
2019-05-03T11:11:31.650Z,11.34
2019-05-03T11:12:31.784Z,11.27
2019-05-03T11:13:31.646Z,11.33
2019-05-03T11:14:31.626Z,11.19
2019-05-03T11:15:31.644Z,11.13
2019-05-03T11:16:31.618Z,11.18
2019-05-03T11:17:31.604Z,11.13
2019-05-03T11:18:31.599Z,11.15
2019-05-03T11:19:31.587Z,11.16
2019-05-03T11:20:37.094Z,11.2
2019-05-03T11:21:37.193Z,11.15
2019-05-03T11:22:31.573Z,11.19
2019-05-03T11:23:31.568Z,11.2
2019-05-03T11:24:34.648Z,11.13
2019-05-03T11:25:31.545Z,11.19
2019-05-03T11:26:31.534Z,11.08
2019-05-03T11:27:31.536Z,11.22
2019-05-03T11:28:31.269Z,11.27
2019-05-03T11:29:31.516Z,11.26
2019-05-03T11:30:31.507Z,11.31
2019-05-03T11:31:31.244Z,11.4
2019-05-03T11:32:31.487Z,11.33
2019-05-03T11:33:31.482Z,11.25
2019-05-03T11:34:31.512Z,11.26
2019-05-03T11:35:31.471Z,11.25
2019-05-03T11:36:34.848Z,11.15
2019-05-03T11:37:31.456Z,11.15
2019-05-03T11:38:31.451Z,11.12
2019-05-03T11:39:31.435Z,11.16
2019-05-03T11:40:31.430Z,11.13
2019-05-03T11:41:38.007Z,11.15
2019-05-03T11:42:31.418Z,11.22
2019-05-03T11:43:31.156Z,11.2
2019-05-03T11:44:31.403Z,11.19
2019-05-03T11:45:31.394Z,11.25
2019-05-03T11:46:31.127Z,11.23
2019-05-03T11:47:34.669Z,11.41
2019-05-03T11:48:31.370Z,11.38
2019-05-03T11:49:31.362Z,11.51
2019-05-03T11:50:31.355Z,11.51
2019-05-03T11:51:31.364Z,11.49
2019-05-03T11:52:31.340Z,11.59
2019-05-03T11:53:31.327Z,11.6
2019-05-03T11:54:31.319Z,11.52
2019-05-03T11:55:31.764Z,11.51
2019-05-03T11:56:31.062Z,11.56
2019-05-03T11:57:31.487Z,11.49
2019-05-03T11:58:32.166Z,11.53
2019-05-03T11:59:31.424Z,11.43
2019-05-03T12:00:31.641Z,11.4
2019-05-03T12:02:31.429Z,11.45
2019-05-03T12:03:31.251Z,11.37
2019-05-03T12:04:31.279Z,11.45
2019-05-03T12:05:31.275Z,11.49
2019-05-03T12:06:30.980Z,11.67
2019-05-03T12:07:45.479Z,11.62
2019-05-03T12:08:31.317Z,11.63
2019-05-03T12:09:31.203Z,11.59
2019-05-03T12:11:01.655Z,11.52
2019-05-03T12:11:31.186Z,11.49
2019-05-03T12:12:35.306Z,11.53
2019-05-03T12:13:30.998Z,11.55
2019-05-03T12:14:31.169Z,11.52
2019-05-03T12:15:31.164Z,11.35
2019-05-03T12:17:26.698Z,11.18
2019-05-03T12:17:56.142Z,11.23
2019-05-03T12:18:57.035Z,11.22
2019-05-03T12:19:46.759Z,11.27
2019-05-03T12:20:46.380Z,11.37
2019-05-03T12:21:44.212Z,11.37
2019-05-03T12:22:42.683Z,11.38
2019-05-03T12:23:45.442Z,11.38
2019-05-03T12:24:43.297Z,11.45
2019-05-03T12:25:43.298Z,11.4
2019-05-03T12:26:49.545Z,11.34
2019-05-03T12:27:40.150Z,11.33
2019-05-03T12:28:40.266Z,11.31
2019-05-03T12:29:40.157Z,11.19
2019-05-03T12:30:40.490Z,11.33
2019-05-03T12:31:45.638Z,11.33
2019-05-03T12:32:40.105Z,11.23
2019-05-03T12:33:40.432Z,11.16
2019-05-03T12:34:40.200Z,11.08
2019-05-03T12:35:40.718Z,11.1
2019-05-03T12:36:43.833Z,11.13
2019-05-03T12:37:40.331Z,11.02
2019-05-03T12:38:40.070Z,11.04
2019-05-03T12:39:40.846Z,11.01
2019-05-03T12:40:40.042Z,11.07
2019-05-03T12:41:40.036Z,11.02
2019-05-03T12:42:40.443Z,10.98
2019-05-03T12:43:40.055Z,10.98
2019-05-03T12:44:40.396Z,10.98
2019-05-03T12:45:40.385Z,10.98
2019-05-03T12:46:40.238Z,11.02
2019-05-03T12:47:39.991Z,11.1
2019-05-03T12:48:40.413Z,11.18
2019-05-03T12:49:40.802Z,11.08
2019-05-03T12:50:40.925Z,11.15
2019-05-03T12:51:39.954Z,11.13
2019-05-03T12:52:55.144Z,11.16
2019-05-03T12:53:40.201Z,11.23
2019-05-03T12:54:40.675Z,11.18
2019-05-03T12:55:40.559Z,11.27
2019-05-03T12:56:40.763Z,11.27
2019-05-03T12:57:39.904Z,11.3
2019-05-03T12:58:39.897Z,11.23
2019-05-03T12:59:40.800Z,11.33
2019-05-03T13:00:39.894Z,11.34
2019-05-03T13:01:47.810Z,11.48
2019-05-03T13:02:39.867Z,11.52
2019-05-03T13:03:39.860Z,11.56
2019-05-03T13:04:39.863Z,11.67
2019-05-03T13:05:40.447Z,11.63
2019-05-03T13:06:39.835Z,11.68
2019-05-03T13:07:39.830Z,11.78
2019-05-03T13:08:40.373Z,11.74
2019-05-03T13:09:40.658Z,11.76
2019-05-03T13:10:39.815Z,11.71
2019-05-03T13:11:58.726Z,11.76
2019-05-03T13:12:53.438Z,11.88
2019-05-03T13:13:40.837Z,11.88
2019-05-03T13:14:39.774Z,12
2019-05-03T13:15:40.058Z,12.02